sensor_id;sensor_type;location;lat;lon;timestamp;pressure;altitude;pressure_sealevel;temperature;humidity
38852;BME280;24605;50.092;9.182;2023-02-02T00:00:14;98227.81;;;4.48;100.00
38852;BME280;24605;50.092;9.182;2023-02-02T00:02:41;98222.03;;;4.45;100.00
38852;BME280;24605;50.092;9.182;2023-02-02T00:05:08;98231.78;;;4.52;100.00
38852;BME280;24605;50.092;9.182;2023-02-02T00:07:35;98235.22;;;4.53;100.00
38852;BME280;24605;50.092;9.182;2023-02-02T00:10:03;98233.59;;;4.52;100.00
38852;BME280;24605;50.092;9.182;2023-02-02T00:12:30;98231.09;;;4.50;100.00
38852;BME280;24605;50.092;9.182;2023-02-02T00:14:56;98231.34;;;4.47;100.00
38852;BME280;24605;50.092;9.182;2023-02-02T00:17:23;98210.00;;;4.44;100.00
38852;BME280;24605;50.092;9.182;2023-02-02T00:19:50;98215.78;;;4.47;100.00
38852;BME280;24605;50.092;9.182;2023-02-02T00:22:16;98188.84;;;4.27;100.00
38852;BME280;24605;50.092;9.182;2023-02-02T00:24:42;98222.13;;;4.54;100.00
38852;BME280;24605;50.092;9.182;2023-02-02T00:27:10;98225.66;;;4.53;100.00
38852;BME280;24605;50.092;9.182;2023-02-02T00:29:37;98221.53;;;4.51;100.00
38852;BME280;24605;50.092;9.182;2023-02-02T00:32:04;98225.31;;;4.47;100.00
38852;BME280;24605;50.092;9.182;2023-02-02T00:34:31;98221.91;;;4.46;100.00
38852;BME280;24605;50.092;9.182;2023-02-02T00:36:57;98217.91;;;4.42;100.00
38852;BME280;24605;50.092;9.182;2023-02-02T00:39:24;98217.44;;;4.48;100.00
38852;BME280;24605;50.092;9.182;2023-02-02T00:41:51;98207.28;;;4.45;100.00
38852;BME280;24605;50.092;9.182;2023-02-02T00:44:19;98202.66;;;4.49;100.00
38852;BME280;24605;50.092;9.182;2023-02-02T00:47:03;98216.84;;;4.45;100.00
38852;BME280;24605;50.092;9.182;2023-02-02T00:49:30;98212.59;;;4.44;100.00
38852;BME280;24605;50.092;9.182;2023-02-02T00:51:57;98202.47;;;4.41;100.00
38852;BME280;24605;50.092;9.182;2023-02-02T00:54:25;98223.31;;;4.50;100.00
38852;BME280;24605;50.092;9.182;2023-02-02T00:56:51;98184.44;;;4.28;100.00
38852;BME280;24605;50.092;9.182;2023-02-02T00:59:19;98215.88;;;4.46;100.00
38852;BME280;24605;50.092;9.182;2023-02-02T01:01:46;98187.19;;;4.26;100.00
38852;BME280;24605;50.092;9.182;2023-02-02T01:04:12;98190.94;;;4.33;100.00
38852;BME280;24605;50.092;9.182;2023-02-02T01:06:39;98217.78;;;4.44;100.00
38852;BME280;24605;50.092;9.182;2023-02-02T01:09:06;98194.34;;;4.34;100.00
38852;BME280;24605;50.092;9.182;2023-02-02T01:11:32;98224.75;;;4.43;100.00
38852;BME280;24605;50.092;9.182;2023-02-02T01:13:59;98219.56;;;4.43;100.00
38852;BME280;24605;50.092;9.182;2023-02-02T01:16:27;98222.28;;;4.42;100.00
38852;BME280;24605;50.092;9.182;2023-02-02T01:18:53;98218.53;;;4.34;100.00
38852;BME280;24605;50.092;9.182;2023-02-02T01:21:20;98223.94;;;4.43;100.00
38852;BME280;24605;50.092;9.182;2023-02-02T01:23:47;98227.47;;;4.42;100.00
38852;BME280;24605;50.092;9.182;2023-02-02T01:26:14;98226.41;;;4.44;100.00
38852;BME280;24605;50.092;9.182;2023-02-02T01:28:40;98237.34;;;4.48;100.00
38852;BME280;24605;50.092;9.182;2023-02-02T01:31:09;98239.84;;;4.49;100.00
38852;BME280;24605;50.092;9.182;2023-02-02T01:33:38;98234.53;;;4.51;100.00
38852;BME280;24605;50.092;9.182;2023-02-02T01:36:06;98231.09;;;4.50;100.00
38852;BME280;24605;50.092;9.182;2023-02-02T01:38:33;98236.03;;;4.53;100.00
38852;BME280;24605;50.092;9.182;2023-02-02T01:41:00;98239.59;;;4.52;100.00
38852;BME280;24605;50.092;9.182;2023-02-02T01:43:47;98239.72;;;4.51;100.00
38852;BME280;24605;50.092;9.182;2023-02-02T01:46:17;98243.63;;;4.45;100.00
38852;BME280;24605;50.092;9.182;2023-02-02T01:48:48;98241.06;;;4.34;100.00
38852;BME280;24605;50.092;9.182;2023-02-02T01:51:18;98249.56;;;4.24;100.00
38852;BME280;24605;50.092;9.182;2023-02-02T01:53:47;98260.19;;;4.21;100.00
38852;BME280;24605;50.092;9.182;2023-02-02T01:56:18;98250.06;;;4.18;100.00
38852;BME280;24605;50.092;9.182;2023-02-02T01:58:45;98257.97;;;4.17;100.00
38852;BME280;24605;50.092;9.182;2023-02-02T02:01:12;98253.72;;;4.16;100.00
38852;BME280;24605;50.092;9.182;2023-02-02T02:03:40;98248.41;;;4.17;100.00
38852;BME280;24605;50.092;9.182;2023-02-02T02:06:09;98240.63;;;4.17;100.00
38852;BME280;24605;50.092;9.182;2023-02-02T02:08:39;98237.09;;;4.18;100.00
38852;BME280;24605;50.092;9.182;2023-02-02T02:11:07;98248.16;;;4.20;100.00
38852;BME280;24605;50.092;9.182;2023-02-02T02:13:36;98243.09;;;4.19;100.00
38852;BME280;24605;50.092;9.182;2023-02-02T02:16:45;98257.59;;;4.21;100.00
38852;BME280;24605;50.092;9.182;2023-02-02T02:19:38;98244.06;;;4.18;100.00
38852;BME280;24605;50.092;9.182;2023-02-02T02:22:35;98237.94;;;4.07;100.00
38852;BME280;24605;50.092;9.182;2023-02-02T02:25:54;98264.69;;;4.19;100.00
38852;BME280;24605;50.092;9.182;2023-02-02T02:29:29;98261.28;;;3.85;100.00
38852;BME280;24605;50.092;9.182;2023-02-02T02:32:05;98252.47;;;3.76;100.00
38852;BME280;24605;50.092;9.182;2023-02-02T02:34:44;98254.44;;;4.06;100.00
38852;BME280;24605;50.092;9.182;2023-02-02T02:37:15;98256.31;;;4.16;100.00
38852;BME280;24605;50.092;9.182;2023-02-02T02:39:49;98254.88;;;4.23;100.00
38852;BME280;24605;50.092;9.182;2023-02-02T02:42:21;98261.00;;;4.22;100.00
38852;BME280;24605;50.092;9.182;2023-02-02T02:44:50;98259.00;;;4.26;100.00
38852;BME280;24605;50.092;9.182;2023-02-02T02:47:20;98265.41;;;4.21;100.00
38852;BME280;24605;50.092;9.182;2023-02-02T02:49:48;98262.06;;;4.31;100.00
38852;BME280;24605;50.092;9.182;2023-02-02T02:52:14;98260.16;;;4.33;100.00
38852;BME280;24605;50.092;9.182;2023-02-02T02:54:43;98249.78;;;4.33;100.00
38852;BME280;24605;50.092;9.182;2023-02-02T02:57:21;98223.75;;;4.12;100.00
38852;BME280;24605;50.092;9.182;2023-02-02T02:59:55;98235.19;;;4.20;100.00
38852;BME280;24605;50.092;9.182;2023-02-02T03:02:32;98244.84;;;4.30;100.00
38852;BME280;24605;50.092;9.182;2023-02-02T03:05:08;98244.00;;;4.29;100.00
38852;BME280;24605;50.092;9.182;2023-02-02T03:07:41;98242.97;;;4.32;100.00
38852;BME280;24605;50.092;9.182;2023-02-02T03:10:12;98247.09;;;4.34;100.00
38852;BME280;24605;50.092;9.182;2023-02-02T03:12:44;98246.25;;;4.34;100.00
38852;BME280;24605;50.092;9.182;2023-02-02T03:15:12;98244.59;;;4.33;100.00
38852;BME280;24605;50.092;9.182;2023-02-02T03:17:40;98231.16;;;4.28;100.00
38852;BME280;24605;50.092;9.182;2023-02-02T03:20:09;98235.53;;;4.27;100.00
38852;BME280;24605;50.092;9.182;2023-02-02T03:22:35;98237.16;;;4.28;100.00
38852;BME280;24605;50.092;9.182;2023-02-02T03:25:02;98240.59;;;4.29;100.00
38852;BME280;24605;50.092;9.182;2023-02-02T03:27:29;98240.59;;;4.29;100.00
38852;BME280;24605;50.092;9.182;2023-02-02T03:29:55;98236.22;;;4.29;100.00
38852;BME280;24605;50.092;9.182;2023-02-02T03:32:23;98231.41;;;4.24;100.00
38852;BME280;24605;50.092;9.182;2023-02-02T03:34:51;98240.59;;;4.29;100.00
38852;BME280;24605;50.092;9.182;2023-02-02T03:37:17;98244.84;;;4.30;100.00
38852;BME280;24605;50.092;9.182;2023-02-02T03:39:43;98231.97;;;4.28;100.00
38852;BME280;24605;50.092;9.182;2023-02-02T03:42:10;98235.66;;;4.26;100.00
38852;BME280;24605;50.092;9.182;2023-02-02T03:44:36;98235.53;;;4.27;100.00
38852;BME280;24605;50.092;9.182;2023-02-02T03:47:03;98236.50;;;4.15;100.00
38852;BME280;24605;50.092;9.182;2023-02-02T03:49:29;98235.78;;;4.24;100.00
38852;BME280;24605;50.092;9.182;2023-02-02T03:51:57;98241.69;;;4.26;100.00
38852;BME280;24605;50.092;9.182;2023-02-02T03:54:25;98234.13;;;4.23;100.00
38852;BME280;24605;50.092;9.182;2023-02-02T03:56:52;98235.66;;;4.26;100.00
38852;BME280;24605;50.092;9.182;2023-02-02T03:59:18;98238.25;;;4.26;100.00
38852;BME280;24605;50.092;9.182;2023-02-02T04:01:45;98241.78;;;4.24;100.00
38852;BME280;24605;50.092;9.182;2023-02-02T04:04:11;98240.13;;;4.23;100.00
38852;BME280;24605;50.092;9.182;2023-02-02T04:06:38;98237.44;;;4.25;100.00
38852;BME280;24605;50.092;9.182;2023-02-02T04:09:06;98227.88;;;4.26;100.00
38852;BME280;24605;50.092;9.182;2023-02-02T04:11:32;98239.09;;;4.26;100.00
38852;BME280;24605;50.092;9.182;2023-02-02T04:13:59;98246.97;;;4.24;100.00
38852;BME280;24605;50.092;9.182;2023-02-02T04:16:25;98239.31;;;4.23;100.00
38852;BME280;24605;50.092;9.182;2023-02-02T04:18:52;98244.50;;;4.23;100.00
38852;BME280;24605;50.092;9.182;2023-02-02T04:21:18;98254.66;;;4.26;100.00
38852;BME280;24605;50.092;9.182;2023-02-02T04:23:45;98243.44;;;4.26;100.00
38852;BME280;24605;50.092;9.182;2023-02-02T04:26:12;98258.28;;;4.23;100.00
38852;BME280;24605;50.092;9.182;2023-02-02T04:28:39;98259.00;;;4.26;100.00
38852;BME280;24605;50.092;9.182;2023-02-02T04:31:05;98262.53;;;4.24;100.00
38852;BME280;24605;50.092;9.182;2023-02-02T04:33:33;98265.84;;;4.27;100.00
38852;BME280;24605;50.092;9.182;2023-02-02T04:35:59;98263.81;;;4.30;100.00
38852;BME280;24605;50.092;9.182;2023-02-02T04:38:26;98276.44;;;4.35;100.00
38852;BME280;24605;50.092;9.182;2023-02-02T04:40:53;98271.63;;;4.30;100.00
38852;BME280;24605;50.092;9.182;2023-02-02T04:43:20;98264.66;;;4.31;100.00
38852;BME280;24605;50.092;9.182;2023-02-02T04:45:47;98259.72;;;4.16;100.00
38852;BME280;24605;50.092;9.182;2023-02-02T04:48:14;98284.22;;;4.35;100.00
38852;BME280;24605;50.092;9.182;2023-02-02T04:50:40;98277.16;;;4.37;100.00
38852;BME280;24605;50.092;9.182;2023-02-02T04:53:07;98283.28;;;4.36;100.00
38852;BME280;24605;50.092;9.182;2023-02-02T04:55:35;98277.66;;;4.31;100.00
38852;BME280;24605;50.092;9.182;2023-02-02T04:58:02;98291.44;;;4.43;100.00
38852;BME280;24605;50.092;9.182;2023-02-02T05:00:30;98300.03;;;4.43;100.00
38852;BME280;24605;50.092;9.182;2023-02-02T05:02:56;98296.47;;;4.44;100.00
38852;BME280;24605;50.092;9.182;2023-02-02T05:05:23;98293.06;;;4.44;100.00
38852;BME280;24605;50.092;9.182;2023-02-02T05:07:49;98306.84;;;4.55;100.00
38852;BME280;24605;50.092;9.182;2023-02-02T05:10:16;98308.16;;;4.50;100.00
38852;BME280;24605;50.092;9.182;2023-02-02T05:12:43;98293.66;;;4.47;100.00
38852;BME280;24605;50.092;9.182;2023-02-02T05:15:10;98304.28;;;4.44;100.00
38852;BME280;24605;50.092;9.182;2023-02-02T05:17:38;98303.78;;;4.50;100.00
38852;BME280;24605;50.092;9.182;2023-02-02T05:20:05;98311.47;;;4.52;100.00
38852;BME280;24605;50.092;9.182;2023-02-02T05:22:31;98307.09;;;4.52;100.00
38852;BME280;24605;50.092;9.182;2023-02-02T05:24:59;98308.38;;;4.58;100.00
38852;BME280;24605;50.092;9.182;2023-02-02T05:27:26;98303.53;;;4.53;100.00
38852;BME280;24605;50.092;9.182;2023-02-02T05:29:52;98309.56;;;4.54;100.00
38852;BME280;24605;50.092;9.182;2023-02-02T05:32:19;98306.59;;;4.59;100.00
38852;BME280;24605;50.092;9.182;2023-02-02T05:34:46;98298.59;;;4.50;100.00
38852;BME280;24605;50.092;9.182;2023-02-02T05:37:13;98306.63;;;4.47;100.00
38852;BME280;24605;50.092;9.182;2023-02-02T05:39:39;98312.78;;;4.46;100.00
38852;BME280;24605;50.092;9.182;2023-02-02T05:42:06;98307.56;;;4.46;100.00
38852;BME280;24605;50.092;9.182;2023-02-02T05:44:33;98297.34;;;4.33;100.00
38852;BME280;24605;50.092;9.182;2023-02-02T05:46:59;98314.06;;;4.41;100.00
38852;BME280;24605;50.092;9.182;2023-02-02T05:49:26;98315.50;;;4.45;100.00
38852;BME280;24605;50.092;9.182;2023-02-02T05:51:55;98315.00;;;4.39;100.00
38852;BME280;24605;50.092;9.182;2023-02-02T05:54:23;98287.31;;;4.29;100.00
38852;BME280;24605;50.092;9.182;2023-02-02T05:56:51;98315.72;;;4.42;100.00
38852;BME280;24605;50.092;9.182;2023-02-02T05:59:18;98320.34;;;4.38;100.00
38852;BME280;24605;50.092;9.182;2023-02-02T06:01:45;98314.88;;;4.41;100.00
38852;BME280;24605;50.092;9.182;2023-02-02T06:04:12;98315.84;;;4.40;100.00
38852;BME280;24605;50.092;9.182;2023-02-02T06:06:39;98318.56;;;4.38;100.00
38852;BME280;24605;50.092;9.182;2023-02-02T06:09:08;98317.47;;;4.41;100.00
38852;BME280;24605;50.092;9.182;2023-02-02T06:11:34;98294.25;;;4.28;100.00
38852;BME280;24605;50.092;9.182;2023-02-02T06:14:01;98316.53;;;4.42;100.00
38852;BME280;24605;50.092;9.182;2023-02-02T06:16:27;98324.47;;;4.41;100.00
38852;BME280;24605;50.092;9.182;2023-02-02T06:18:54;98325.97;;;4.43;100.00
38852;BME280;24605;50.092;9.182;2023-02-02T06:21:21;98340.16;;;4.39;100.00
38852;BME280;24605;50.092;9.182;2023-02-02T06:23:49;98329.66;;;4.41;100.00
38852;BME280;24605;50.092;9.182;2023-02-02T06:26:17;98331.44;;;4.40;100.00
38852;BME280;24605;50.092;9.182;2023-02-02T06:28:48;98341.91;;;4.38;100.00
38852;BME280;24605;50.092;9.182;2023-02-02T06:31:15;98341.81;;;4.40;100.00
38852;BME280;24605;50.092;9.182;2023-02-02T06:33:43;98329.28;;;4.34;100.00
38852;BME280;24605;50.092;9.182;2023-02-02T06:36:09;98340.16;;;4.28;100.00
38852;BME280;24605;50.092;9.182;2023-02-02T06:38:36;98338.88;;;4.33;100.00
38852;BME280;24605;50.092;9.182;2023-02-02T06:41:03;98332.50;;;4.26;100.00
38852;BME280;24605;50.092;9.182;2023-02-02T06:43:32;98339.56;;;4.35;100.00
38852;BME280;24605;50.092;9.182;2023-02-02T06:45:58;98339.94;;;4.31;100.00
38852;BME280;24605;50.092;9.182;2023-02-02T06:48:26;98350.53;;;4.28;100.00
38852;BME280;24605;50.092;9.182;2023-02-02T06:50:52;98342.53;;;4.31;100.00
38852;BME280;24605;50.092;9.182;2023-02-02T06:53:19;98337.69;;;4.26;100.00
38852;BME280;24605;50.092;9.182;2023-02-02T06:55:52;98342.53;;;4.31;100.00
38852;BME280;24605;50.092;9.182;2023-02-02T06:58:18;98344.41;;;4.29;100.00
38852;BME280;24605;50.092;9.182;2023-02-02T07:00:46;98347.72;;;4.31;100.00
38852;BME280;24605;50.092;9.182;2023-02-02T07:03:13;98331.91;;;4.22;100.00
38852;BME280;24605;50.092;9.182;2023-02-02T07:05:39;98345.13;;;4.31;100.00
38852;BME280;24605;50.092;9.182;2023-02-02T07:08:06;98321.78;;;4.19;100.00
38852;BME280;24605;50.092;9.182;2023-02-02T07:10:32;98341.09;;;4.27;100.00
38852;BME280;24605;50.092;9.182;2023-02-02T07:12:59;98328.97;;;4.27;100.00
38852;BME280;24605;50.092;9.182;2023-02-02T07:15:25;98322.56;;;4.31;100.00
38852;BME280;24605;50.092;9.182;2023-02-02T07:17:54;98335.44;;;4.33;100.00
38852;BME280;24605;50.092;9.182;2023-02-02T07:20:20;98342.97;;;4.36;100.00
38852;BME280;24605;50.092;9.182;2023-02-02T07:22:47;98341.19;;;4.36;100.00
38852;BME280;24605;50.092;9.182;2023-02-02T07:25:14;98335.06;;;4.37;100.00
38852;BME280;24605;50.092;9.182;2023-02-02T07:27:40;98342.50;;;4.42;100.00
38852;BME280;24605;50.092;9.182;2023-02-02T07:30:08;98354.78;;;4.40;100.00
38852;BME280;24605;50.092;9.182;2023-02-02T07:32:35;98337.22;;;4.32;100.00
38852;BME280;24605;50.092;9.182;2023-02-02T07:35:03;98352.66;;;4.45;100.00
38852;BME280;24605;50.092;9.182;2023-02-02T07:37:30;98356.91;;;4.46;100.00
38852;BME280;24605;50.092;9.182;2023-02-02T07:39:56;98370.59;;;4.48;100.00
38852;BME280;24605;50.092;9.182;2023-02-02T07:42:23;98362.81;;;4.48;100.00
38852;BME280;24605;50.092;9.182;2023-02-02T07:44:49;98340.38;;;4.36;100.00
38852;BME280;24605;50.092;9.182;2023-02-02T07:47:16;98362.44;;;4.53;100.00
38852;BME280;24605;50.092;9.182;2023-02-02T07:49:43;98364.78;;;4.56;100.00
38852;BME280;24605;50.092;9.182;2023-02-02T07:52:11;98370.69;;;4.58;100.00
38852;BME280;24605;50.092;9.182;2023-02-02T07:54:38;98372.22;;;4.61;100.00
38852;BME280;24605;50.092;9.182;2023-02-02T07:57:04;98377.19;;;4.64;100.00
38852;BME280;24605;50.092;9.182;2023-02-02T07:59:31;98367.38;;;4.56;100.00
38852;BME280;24605;50.092;9.182;2023-02-02T08:01:58;98372.78;;;4.64;100.00
38852;BME280;24605;50.092;9.182;2023-02-02T08:04:25;98373.28;;;4.69;100.00
38852;BME280;24605;50.092;9.182;2023-02-02T08:06:52;98361.81;;;4.61;100.00
38852;BME280;24605;50.092;9.182;2023-02-02T08:09:20;98389.09;;;4.66;100.00
38852;BME280;24605;50.092;9.182;2023-02-02T08:11:46;98396.53;;;4.60;100.00
38852;BME280;24605;50.092;9.182;2023-02-02T08:14:13;98394.41;;;4.53;100.00
38852;BME280;24605;50.092;9.182;2023-02-02T08:16:39;98386.84;;;4.50;100.00
38852;BME280;24605;50.092;9.182;2023-02-02T08:19:06;98392.19;;;4.49;100.00
38852;BME280;24605;50.092;9.182;2023-02-02T08:21:32;98396.44;;;4.50;100.00
38852;BME280;24605;50.092;9.182;2023-02-02T08:23:59;98387.13;;;4.47;100.00
38852;BME280;24605;50.092;9.182;2023-02-02T08:26:31;98403.28;;;4.51;100.00
38852;BME280;24605;50.092;9.182;2023-02-02T08:29:00;98394.53;;;4.52;100.00
38852;BME280;24605;50.092;9.182;2023-02-02T08:31:29;98400.56;;;4.52;100.00
38852;BME280;24605;50.092;9.182;2023-02-02T08:33:56;98384.53;;;4.47;100.00
38852;BME280;24605;50.092;9.182;2023-02-02T08:36:25;98401.13;;;4.56;100.00
38852;BME280;24605;50.092;9.182;2023-02-02T08:38:52;98405.38;;;4.57;100.00
38852;BME280;24605;50.092;9.182;2023-02-02T08:41:20;98406.22;;;4.58;100.00
38852;BME280;24605;50.092;9.182;2023-02-02T08:43:49;98421.81;;;4.58;100.00
38852;BME280;24605;50.092;9.182;2023-02-02T08:46:18;98409.50;;;4.60;100.00
38852;BME280;24605;50.092;9.182;2023-02-02T08:48:44;98413.75;;;4.61;100.00
38852;BME280;24605;50.092;9.182;2023-02-02T08:51:13;98399.59;;;4.53;100.00
38852;BME280;24605;50.092;9.182;2023-02-02T08:53:40;98399.38;;;4.57;100.00
38852;BME280;24605;50.092;9.182;2023-02-02T08:56:10;98407.03;;;4.69;100.00
38852;BME280;24605;50.092;9.182;2023-02-02T08:58:37;98411.16;;;4.72;100.00
38852;BME280;24605;50.092;9.182;2023-02-02T09:01:06;98406.56;;;4.76;100.00
38852;BME280;24605;50.092;9.182;2023-02-02T09:03:33;98398.53;;;4.67;100.00
38852;BME280;24605;50.092;9.182;2023-02-02T09:06:04;98416.72;;;4.79;100.00
38852;BME280;24605;50.092;9.182;2023-02-02T09:08:30;98410.66;;;4.78;100.00
38852;BME280;24605;50.092;9.182;2023-02-02T09:11:02;98408.34;;;4.75;100.00
38852;BME280;24605;50.092;9.182;2023-02-02T09:13:28;98404.53;;;4.68;100.00
38852;BME280;24605;50.092;9.182;2023-02-02T09:15:58;98411.63;;;4.77;100.00
38852;BME280;24605;50.092;9.182;2023-02-02T09:18:25;98431.34;;;4.80;100.00
38852;BME280;24605;50.092;9.182;2023-02-02T09:20:52;98424.16;;;4.83;100.00
38852;BME280;24605;50.092;9.182;2023-02-02T09:23:19;98437.00;;;4.85;100.00
38852;BME280;24605;50.092;9.182;2023-02-02T09:25:46;98429.34;;;4.83;100.00
38852;BME280;24605;50.092;9.182;2023-02-02T09:28:13;98425.53;;;4.88;100.00
38852;BME280;24605;50.092;9.182;2023-02-02T09:30:39;98429.66;;;4.90;100.00
38852;BME280;24605;50.092;9.182;2023-02-02T09:33:06;98423.78;;;4.77;100.00
38852;BME280;24605;50.092;9.182;2023-02-02T09:35:33;98435.22;;;4.97;100.00
38852;BME280;24605;50.092;9.182;2023-02-02T09:38:00;98441.94;;;4.99;100.00
38852;BME280;24605;50.092;9.182;2023-02-02T09:40:26;98444.28;;;5.02;100.00
38852;BME280;24605;50.092;9.182;2023-02-02T09:43:07;98426.81;;;4.93;100.00
38852;BME280;24605;50.092;9.182;2023-02-02T09:45:44;98454.09;;;5.10;100.00
38852;BME280;24605;50.092;9.182;2023-02-02T09:48:20;98455.63;;;5.13;100.00
38852;BME280;24605;50.092;9.182;2023-02-02T09:50:54;98461.63;;;5.13;100.00
38852;BME280;24605;50.092;9.182;2023-02-02T09:53:31;98459.66;;;5.06;100.00
38852;BME280;24605;50.092;9.182;2023-02-02T09:56:05;98464.81;;;5.17;100.00
38852;BME280;24605;50.092;9.182;2023-02-02T09:58:35;98471.66;;;5.18;100.00
38852;BME280;24605;50.092;9.182;2023-02-02T10:01:06;98466.81;;;5.13;100.00
38852;BME280;24605;50.092;9.182;2023-02-02T10:03:36;98480.03;;;5.22;100.00
38852;BME280;24605;50.092;9.182;2023-02-02T10:06:16;98471.22;;;5.13;100.00
38852;BME280;24605;50.092;9.182;2023-02-02T10:08:50;98479.81;;;5.13;100.00
38852;BME280;24605;50.092;9.182;2023-02-02T10:11:26;98489.50;;;5.11;100.00
38852;BME280;24605;50.092;9.182;2023-02-02T10:13:59;98490.56;;;5.09;100.00
38852;BME280;24605;50.092;9.182;2023-02-02T10:16:27;98498.03;;;5.02;100.00
38852;BME280;24605;50.092;9.182;2023-02-02T10:18:58;98492.84;;;5.02;100.00
38852;BME280;24605;50.092;9.182;2023-02-02T10:21:34;98495.91;;;4.96;100.00
38852;BME280;24605;50.092;9.182;2023-02-02T10:24:04;98504.88;;;5.03;100.00
38852;BME280;24605;50.092;9.182;2023-02-02T10:26:44;98506.88;;;4.99;100.00
38852;BME280;24605;50.092;9.182;2023-02-02T10:29:15;98502.63;;;4.98;100.00
38852;BME280;24605;50.092;9.182;2023-02-02T10:31:48;98507.25;;;4.95;100.00
38852;BME280;24605;50.092;9.182;2023-02-02T10:34:23;98514.00;;;4.97;100.00
38852;BME280;24605;50.092;9.182;2023-02-02T10:37:19;98505.59;;;5.05;100.00
38852;BME280;24605;50.092;9.182;2023-02-02T10:40:00;98503.25;;;5.02;100.00
38852;BME280;24605;50.092;9.182;2023-02-02T10:42:36;98507.25;;;5.06;100.00
38852;BME280;24605;50.092;9.182;2023-02-02T10:45:12;98497.56;;;4.97;100.00
38852;BME280;24605;50.092;9.182;2023-02-02T10:47:40;98515.38;;;5.01;100.00
38852;BME280;24605;50.092;9.182;2023-02-02T10:50:16;98510.56;;;5.08;100.00
38852;BME280;24605;50.092;9.182;2023-02-02T10:52:45;98510.78;;;5.16;100.00
38852;BME280;24605;50.092;9.182;2023-02-02T10:55:18;98503.09;;;5.15;100.00
38852;BME280;24605;50.092;9.182;2023-02-02T10:57:52;98512.53;;;5.16;100.00
38852;BME280;24605;50.092;9.182;2023-02-02T11:00:25;98450.13;;;4.83;100.00
38852;BME280;24605;50.092;9.182;2023-02-02T11:02:54;98500.59;;;5.25;100.00
38852;BME280;24605;50.092;9.182;2023-02-02T11:05:22;98515.03;;;5.29;100.00
38852;BME280;24605;50.092;9.182;2023-02-02T11:08:13;98486.88;;;5.23;100.00
38852;BME280;24605;50.092;9.182;2023-02-02T11:10:41;98507.31;;;5.39;100.00
38852;BME280;24605;50.092;9.182;2023-02-02T11:13:13;98512.16;;;5.43;100.00
38852;BME280;24605;50.092;9.182;2023-02-02T11:15:41;98509.31;;;5.46;100.00
38852;BME280;24605;50.092;9.182;2023-02-02T11:18:18;98510.69;;;5.51;100.00
38852;BME280;24605;50.092;9.182;2023-02-02T11:20:50;98493.22;;;5.53;100.00
38852;BME280;24605;50.092;9.182;2023-02-02T11:23:26;98508.56;;;5.56;100.00
38852;BME280;24605;50.092;9.182;2023-02-02T11:25:58;98500.50;;;5.59;100.00
38852;BME280;24605;50.092;9.182;2023-02-02T11:28:26;98500.72;;;5.67;100.00
38852;BME280;24605;50.092;9.182;2023-02-02T11:30:55;98497.97;;;5.69;100.00
38852;BME280;24605;50.092;9.182;2023-02-02T11:33:27;98488.75;;;5.76;100.00
38852;BME280;24605;50.092;9.182;2023-02-02T11:35:55;98488.63;;;5.77;100.00
38852;BME280;24605;50.092;9.182;2023-02-02T11:38:23;98497.13;;;5.79;100.00
38852;BME280;24605;50.092;9.182;2023-02-02T11:40:55;98495.16;;;5.93;100.00
38852;BME280;24605;50.092;9.182;2023-02-02T11:43:27;98499.94;;;5.88;100.00
38852;BME280;24605;50.092;9.182;2023-02-02T11:45:57;98486.22;;;5.86;100.00
38852;BME280;24605;50.092;9.182;2023-02-02T11:48:27;98487.31;;;5.83;100.00
38852;BME280;24605;50.092;9.182;2023-02-02T11:50:56;98495.81;;;5.85;100.00
38852;BME280;24605;50.092;9.182;2023-02-02T11:53:27;98503.53;;;5.75;100.00
38852;BME280;24605;50.092;9.182;2023-02-02T11:55:55;98497.16;;;5.68;100.00
38852;BME280;24605;50.092;9.182;2023-02-02T11:58:23;98496.03;;;5.61;100.00
38852;BME280;24605;50.092;9.182;2023-02-02T12:00:54;98490.81;;;5.61;100.00
38852;BME280;24605;50.092;9.182;2023-02-02T12:03:24;98493.19;;;5.64;100.00
38852;BME280;24605;50.092;9.182;2023-02-02T12:05:51;98508.66;;;5.65;100.00
38852;BME280;24605;50.092;9.182;2023-02-02T12:08:17;98498.28;;;5.54;100.00
38852;BME280;24605;50.092;9.182;2023-02-02T12:10:53;98481.19;;;5.40;100.00
38852;BME280;24605;50.092;9.182;2023-02-02T12:13:33;98470.00;;;5.28;100.00
38852;BME280;24605;50.092;9.182;2023-02-02T12:16:10;98496.44;;;5.33;100.00
38852;BME280;24605;50.092;9.182;2023-02-02T12:18:47;98503.06;;;5.38;100.00
38852;BME280;24605;50.092;9.182;2023-02-02T12:21:27;98504.72;;;5.39;100.00
38852;BME280;24605;50.092;9.182;2023-02-02T12:24:12;98502.69;;;5.42;100.00
38852;BME280;24605;50.092;9.182;2023-02-02T12:26:44;98502.69;;;5.42;100.00
38852;BME280;24605;50.092;9.182;2023-02-02T12:29:28;98508.34;;;5.47;100.00
38852;BME280;24605;50.092;9.182;2023-02-02T12:32:13;98509.31;;;5.46;100.00
38852;BME280;24605;50.092;9.182;2023-02-02T12:34:45;98512.59;;;5.48;100.00
38852;BME280;24605;50.092;9.182;2023-02-02T12:37:21;98504.78;;;5.48;100.00
38852;BME280;24605;50.092;9.182;2023-02-02T12:39:56;98506.22;;;5.53;100.00
38852;BME280;24605;50.092;9.182;2023-02-02T12:42:50;98501.00;;;5.53;100.00
38852;BME280;24605;50.092;9.182;2023-02-02T12:45:33;98430.50;;;5.02;100.00
38852;BME280;24605;50.092;9.182;2023-02-02T12:48:15;98511.19;;;5.44;100.00
38852;BME280;24605;50.092;9.182;2023-02-02T12:50:56;98512.81;;;5.57;100.00
38852;BME280;24605;50.092;9.182;2023-02-02T12:53:37;98519.19;;;5.64;100.00
38852;BME280;24605;50.092;9.182;2023-02-02T12:56:17;98512.66;;;5.70;100.00
38852;BME280;24605;50.092;9.182;2023-02-02T12:58:52;98511.13;;;5.67;100.00
38852;BME280;24605;50.092;9.182;2023-02-02T13:01:35;98519.63;;;5.69;100.00
38852;BME280;24605;50.092;9.182;2023-02-02T13:04:22;98519.97;;;5.76;100.00
38852;BME280;24605;50.092;9.182;2023-02-02T13:07:08;98521.03;;;5.73;100.00
38852;BME280;24605;50.092;9.182;2023-02-02T13:09:43;98520.22;;;5.73;100.00
38852;BME280;24605;50.092;9.182;2023-02-02T13:12:17;98525.03;;;5.77;100.00
38852;BME280;24605;50.092;9.182;2023-02-02T13:14:48;98520.56;;;5.79;100.00